sensor_id;sensor_type;location;lat;lon;timestamp;P1;durP1;ratioP1;P2;durP2;ratioP2
82635;SDS011;72317;37.280;-121.948;2024-01-11T00:23:20;2.75;;;0.60;;
82635;SDS011;72317;37.280;-121.948;2024-01-11T00:25:47;3.83;;;0.82;;
82635;SDS011;72317;37.280;-121.948;2024-01-11T00:28:13;2.38;;;0.70;;
82635;SDS011;72317;37.280;-121.948;2024-01-11T00:30:39;1.90;;;0.70;;
82635;SDS011;72317;37.280;-121.948;2024-01-11T00:33:05;1.98;;;0.57;;
82635;SDS011;72317;37.280;-121.948;2024-01-11T00:35:32;1.35;;;0.68;;
82635;SDS011;72317;37.280;-121.948;2024-01-11T00:37:58;4.45;;;0.68;;
82635;SDS011;72317;37.280;-121.948;2024-01-11T00:40:24;3.33;;;0.93;;
82635;SDS011;72317;37.280;-121.948;2024-01-11T00:42:50;1.98;;;0.70;;
82635;SDS011;72317;37.280;-121.948;2024-01-11T00:45:16;4.90;;;0.85;;
82635;SDS011;72317;37.280;-121.948;2024-01-11T00:47:43;1.90;;;0.60;;
82635;SDS011;72317;37.280;-121.948;2024-01-11T00:50:09;3.10;;;0.90;;
82635;SDS011;72317;37.280;-121.948;2024-01-11T00:52:35;2.25;;;0.70;;
82635;SDS011;72317;37.280;-121.948;2024-01-11T00:55:01;5.53;;;0.80;;
82635;SDS011;72317;37.280;-121.948;2024-01-11T00:57:28;3.03;;;0.70;;
82635;SDS011;72317;37.280;-121.948;2024-01-11T00:59:54;5.43;;;0.98;;
82635;SDS011;72317;37.280;-121.948;2024-01-11T01:02:20;7.03;;;1.20;;
82635;SDS011;72317;37.280;-121.948;2024-01-11T01:04:46;6.90;;;1.00;;
82635;SDS011;72317;37.280;-121.948;2024-01-11T01:07:13;4.63;;;1.10;;
82635;SDS011;72317;37.280;-121.948;2024-01-11T01:09:39;1.88;;;0.55;;
82635;SDS011;72317;37.280;-121.948;2024-01-11T01:12:06;4.18;;;0.60;;
82635;SDS011;72317;37.280;-121.948;2024-01-11T01:14:32;2.67;;;0.68;;
82635;SDS011;72317;37.280;-121.948;2024-01-11T01:16:58;2.15;;;0.65;;
82635;SDS011;72317;37.280;-121.948;2024-01-11T01:19:25;3.28;;;0.60;;
82635;SDS011;72317;37.280;-121.948;2024-01-11T01:21:51;3.00;;;0.80;;
82635;SDS011;72317;37.280;-121.948;2024-01-11T01:24:17;7.43;;;0.70;;
82635;SDS011;72317;37.280;-121.948;2024-01-11T01:26:43;3.13;;;0.60;;
82635;SDS011;72317;37.280;-121.948;2024-01-11T01:29:09;1.33;;;0.60;;
82635;SDS011;72317;37.280;-121.948;2024-01-11T01:31:36;8.43;;;0.65;;
82635;SDS011;72317;37.280;-121.948;2024-01-11T01:37:24;8.77;;;1.00;;
82635;SDS011;72317;37.280;-121.948;2024-01-11T01:39:51;3.00;;;0.82;;
82635;SDS011;72317;37.280;-121.948;2024-01-11T01:42:17;2.38;;;0.63;;
82635;SDS011;72317;37.280;-121.948;2024-01-11T01:44:43;3.22;;;0.80;;
82635;SDS011;72317;37.280;-121.948;2024-01-11T01:47:09;4.78;;;0.88;;
82635;SDS011;72317;37.280;-121.948;2024-01-11T01:49:37;5.07;;;1.10;;
82635;SDS011;72317;37.280;-121.948;2024-01-11T01:52:04;4.07;;;0.88;;
82635;SDS011;72317;37.280;-121.948;2024-01-11T01:54:31;3.78;;;0.80;;
82635;SDS011;72317;37.280;-121.948;2024-01-11T01:56:58;1.67;;;0.70;;
82635;SDS011;72317;37.280;-121.948;2024-01-11T01:59:26;7.03;;;1.02;;
82635;SDS011;72317;37.280;-121.948;2024-01-11T02:01:53;1.65;;;0.85;;
82635;SDS011;72317;37.280;-121.948;2024-01-11T02:04:20;3.05;;;0.80;;
82635;SDS011;72317;37.280;-121.948;2024-01-11T02:06:48;5.88;;;1.50;;
82635;SDS011;72317;37.280;-121.948;2024-01-11T02:09:15;3.83;;;1.98;;
82635;SDS011;72317;37.280;-121.948;2024-01-11T02:11:43;3.80;;;1.48;;
82635;SDS011;72317;37.280;-121.948;2024-01-11T02:14:10;4.22;;;1.52;;
82635;SDS011;72317;37.280;-121.948;2024-01-11T02:16:37;7.20;;;1.60;;
82635;SDS011;72317;37.280;-121.948;2024-01-11T02:19:04;6.50;;;0.98;;
82635;SDS011;72317;37.280;-121.948;2024-01-11T02:21:32;3.17;;;0.80;;
82635;SDS011;72317;37.280;-121.948;2024-01-11T02:24:08;4.90;;;1.02;;
82635;SDS011;72317;37.280;-121.948;2024-01-11T02:26:35;6.68;;;0.80;;
82635;SDS011;72317;37.280;-121.948;2024-01-11T02:29:01;7.93;;;0.93;;
82635;SDS011;72317;37.280;-121.948;2024-01-11T02:31:28;6.10;;;0.80;;
82635;SDS011;72317;37.280;-121.948;2024-01-11T02:33:54;4.18;;;1.10;;
82635;SDS011;72317;37.280;-121.948;2024-01-11T02:36:21;2.95;;;0.70;;
82635;SDS011;72317;37.280;-121.948;2024-01-11T02:38:48;3.60;;;0.50;;
82635;SDS011;72317;37.280;-121.948;2024-01-11T02:41:16;3.30;;;0.80;;
82635;SDS011;72317;37.280;-121.948;2024-01-11T02:43:47;5.25;;;0.60;;
82635;SDS011;72317;37.280;-121.948;2024-01-11T02:46:14;4.35;;;0.85;;
82635;SDS011;72317;37.280;-121.948;2024-01-11T02:48:41;2.67;;;0.60;;
82635;SDS011;72317;37.280;-121.948;2024-01-11T02:51:08;5.68;;;0.90;;
82635;SDS011;72317;37.280;-121.948;2024-01-11T02:53:34;3.25;;;0.60;;
82635;SDS011;72317;37.280;-121.948;2024-01-11T02:56:01;6.03;;;0.90;;
82635;SDS011;72317;37.280;-121.948;2024-01-11T02:58:27;2.45;;;0.70;;
82635;SDS011;72317;37.280;-121.948;2024-01-11T03:00:53;4.22;;;0.80;;
82635;SDS011;72317;37.280;-121.948;2024-01-11T03:03:19;5.28;;;0.90;;
82635;SDS011;72317;37.280;-121.948;2024-01-11T03:05:46;5.55;;;0.73;;
82635;SDS011;72317;37.280;-121.948;2024-01-11T03:08:12;7.18;;;0.98;;
82635;SDS011;72317;37.280;-121.948;2024-01-11T03:10:39;3.03;;;0.70;;
82635;SDS011;72317;37.280;-121.948;2024-01-11T03:13:05;3.75;;;0.60;;
82635;SDS011;72317;37.280;-121.948;2024-01-11T03:15:32;6.25;;;0.88;;
82635;SDS011;72317;37.280;-121.948;2024-01-11T03:17:59;3.20;;;0.82;;
82635;SDS011;72317;37.280;-121.948;2024-01-11T03:20:25;5.18;;;0.80;;
82635;SDS011;72317;37.280;-121.948;2024-01-11T03:22:51;4.82;;;0.90;;
82635;SDS011;72317;37.280;-121.948;2024-01-11T03:25:18;1.30;;;0.60;;
82635;SDS011;72317;37.280;-121.948;2024-01-11T03:27:44;5.15;;;0.93;;
82635;SDS011;72317;37.280;-121.948;2024-01-11T03:30:11;5.75;;;0.98;;
82635;SDS011;72317;37.280;-121.948;2024-01-11T03:32:37;2.60;;;0.70;;
82635;SDS011;72317;37.280;-121.948;2024-01-11T03:35:07;1.65;;;0.60;;
82635;SDS011;72317;37.280;-121.948;2024-01-11T03:37:34;1.80;;;0.70;;
82635;SDS011;72317;37.280;-121.948;2024-01-11T03:40:01;4.18;;;0.75;;
82635;SDS011;72317;37.280;-121.948;2024-01-11T03:42:28;4.18;;;0.95;;
82635;SDS011;72317;37.280;-121.948;2024-01-11T03:44:55;3.25;;;0.80;;
82635;SDS011;72317;37.280;-121.948;2024-01-11T03:47:21;2.45;;;0.80;;
82635;SDS011;72317;37.280;-121.948;2024-01-11T03:49:47;1.75;;;0.68;;
82635;SDS011;72317;37.280;-121.948;2024-01-11T03:52:13;3.90;;;0.55;;
82635;SDS011;72317;37.280;-121.948;2024-01-11T03:54:40;4.28;;;0.77;;
82635;SDS011;72317;37.280;-121.948;2024-01-11T03:57:06;6.10;;;0.82;;
82635;SDS011;72317;37.280;-121.948;2024-01-11T03:59:32;3.20;;;0.90;;
82635;SDS011;72317;37.280;-121.948;2024-01-11T04:01:58;5.95;;;1.20;;
82635;SDS011;72317;37.280;-121.948;2024-01-11T04:04:25;6.25;;;0.90;;
82635;SDS011;72317;37.280;-121.948;2024-01-11T04:06:51;3.30;;;0.82;;
82635;SDS011;72317;37.280;-121.948;2024-01-11T04:09:18;2.67;;;0.60;;
82635;SDS011;72317;37.280;-121.948;2024-01-11T04:11:45;6.38;;;0.98;;
82635;SDS011;72317;37.280;-121.948;2024-01-11T04:14:12;7.05;;;1.00;;
82635;SDS011;72317;37.280;-121.948;2024-01-11T04:16:41;2.10;;;0.73;;
82635;SDS011;72317;37.280;-121.948;2024-01-11T04:19:08;3.75;;;0.60;;
82635;SDS011;72317;37.280;-121.948;2024-01-11T04:21:35;2.35;;;0.47;;
82635;SDS011;72317;37.280;-121.948;2024-01-11T04:24:04;3.25;;;0.50;;
82635;SDS011;72317;37.280;-121.948;2024-01-11T04:26:33;3.85;;;1.00;;
82635;SDS011;72317;37.280;-121.948;2024-01-11T04:29:00;5.75;;;0.82;;
82635;SDS011;72317;37.280;-121.948;2024-01-11T04:31:26;2.08;;;0.60;;
82635;SDS011;72317;37.280;-121.948;2024-01-11T04:33:52;3.20;;;0.40;;
82635;SDS011;72317;37.280;-121.948;2024-01-11T04:36:19;2.08;;;0.88;;
82635;SDS011;72317;37.280;-121.948;2024-01-11T04:38:45;1.55;;;0.50;;
82635;SDS011;72317;37.280;-121.948;2024-01-11T04:41:11;1.77;;;0.47;;
82635;SDS011;72317;37.280;-121.948;2024-01-11T04:43:39;1.17;;;0.38;;
82635;SDS011;72317;37.280;-121.948;2024-01-11T04:46:15;2.10;;;0.47;;
82635;SDS011;72317;37.280;-121.948;2024-01-11T04:48:45;7.93;;;0.70;;
82635;SDS011;72317;37.280;-121.948;2024-01-11T04:51:12;2.15;;;0.57;;
82635;SDS011;72317;37.280;-121.948;2024-01-11T04:53:39;3.75;;;0.50;;
82635;SDS011;72317;37.280;-121.948;2024-01-11T04:56:06;1.63;;;0.45;;
82635;SDS011;72317;37.280;-121.948;2024-01-11T04:58:33;5.07;;;0.50;;
82635;SDS011;72317;37.280;-121.948;2024-01-11T05:01:00;3.38;;;0.50;;
82635;SDS011;72317;37.280;-121.948;2024-01-11T05:03:27;2.45;;;0.40;;
82635;SDS011;72317;37.280;-121.948;2024-01-11T05:05:53;0.63;;;0.30;;
82635;SDS011;72317;37.280;-121.948;2024-01-11T05:08:19;0.30;;;0.30;;
82635;SDS011;72317;37.280;-121.948;2024-01-11T05:10:45;1.13;;;0.40;;
82635;SDS011;72317;37.280;-121.948;2024-01-11T05:13:12;4.32;;;0.50;;
82635;SDS011;72317;37.280;-121.948;2024-01-11T05:15:38;2.38;;;0.57;;
82635;SDS011;72317;37.280;-121.948;2024-01-11T05:18:04;1.15;;;0.50;;
82635;SDS011;72317;37.280;-121.948;2024-01-11T05:20:30;2.03;;;0.57;;
82635;SDS011;72317;37.280;-121.948;2024-01-11T05:22:56;2.67;;;0.50;;
82635;SDS011;72317;37.280;-121.948;2024-01-11T05:25:22;6.38;;;0.50;;
82635;SDS011;72317;37.280;-121.948;2024-01-11T05:27:48;2.47;;;0.60;;
82635;SDS011;72317;37.280;-121.948;2024-01-11T05:30:14;2.13;;;0.63;;
82635;SDS011;72317;37.280;-121.948;2024-01-11T05:32:41;4.82;;;0.73;;
82635;SDS011;72317;37.280;-121.948;2024-01-11T05:35:07;3.00;;;0.57;;
82635;SDS011;72317;37.280;-121.948;2024-01-11T05:37:35;3.22;;;0.60;;
82635;SDS011;72317;37.280;-121.948;2024-01-11T05:40:02;2.10;;;0.60;;
82635;SDS011;72317;37.280;-121.948;2024-01-11T05:42:28;4.28;;;0.50;;
82635;SDS011;72317;37.280;-121.948;2024-01-11T05:44:54;6.88;;;0.60;;
82635;SDS011;72317;37.280;-121.948;2024-01-11T05:47:21;4.35;;;0.63;;
82635;SDS011;72317;37.280;-121.948;2024-01-11T05:49:47;1.27;;;0.50;;
82635;SDS011;72317;37.280;-121.948;2024-01-11T05:52:13;4.28;;;0.60;;
82635;SDS011;72317;37.280;-121.948;2024-01-11T05:54:39;3.35;;;0.63;;
82635;SDS011;72317;37.280;-121.948;2024-01-11T05:57:05;1.88;;;0.40;;
82635;SDS011;72317;37.280;-121.948;2024-01-11T05:59:32;4.68;;;0.73;;
82635;SDS011;72317;37.280;-121.948;2024-01-11T06:01:59;2.33;;;0.50;;
82635;SDS011;72317;37.280;-121.948;2024-01-11T06:04:26;2.67;;;0.57;;
82635;SDS011;72317;37.280;-121.948;2024-01-11T06:06:53;3.08;;;0.85;;
82635;SDS011;72317;37.280;-121.948;2024-01-11T06:09:19;3.67;;;0.60;;
82635;SDS011;72317;37.280;-121.948;2024-01-11T06:11:45;2.00;;;0.70;;
82635;SDS011;72317;37.280;-121.948;2024-01-11T06:14:11;2.97;;;0.50;;
82635;SDS011;72317;37.280;-121.948;2024-01-11T06:16:37;6.03;;;0.50;;
82635;SDS011;72317;37.280;-121.948;2024-01-11T06:19:03;5.70;;;0.60;;
82635;SDS011;72317;37.280;-121.948;2024-01-11T06:21:29;1.35;;;0.40;;
82635;SDS011;72317;37.280;-121.948;2024-01-11T06:23:56;5.45;;;0.45;;
82635;SDS011;72317;37.280;-121.948;2024-01-11T06:26:22;3.75;;;0.60;;
82635;SDS011;72317;37.280;-121.948;2024-01-11T06:28:48;4.05;;;0.60;;
82635;SDS011;72317;37.280;-121.948;2024-01-11T06:31:14;0.98;;;0.30;;
82635;SDS011;72317;37.280;-121.948;2024-01-11T06:33:40;4.20;;;0.50;;
82635;SDS011;72317;37.280;-121.948;2024-01-11T06:36:08;2.80;;;0.45;;
82635;SDS011;72317;37.280;-121.948;2024-01-11T06:38:34;1.90;;;0.45;;
82635;SDS011;72317;37.280;-121.948;2024-01-11T06:41:00;6.18;;;0.50;;
82635;SDS011;72317;37.280;-121.948;2024-01-11T06:43:26;3.60;;;0.50;;
82635;SDS011;72317;37.280;-121.948;2024-01-11T06:45:52;2.47;;;0.73;;
82635;SDS011;72317;37.280;-121.948;2024-01-11T06:48:19;2.72;;;0.40;;
82635;SDS011;72317;37.280;-121.948;2024-01-11T06:50:45;2.00;;;0.40;;
82635;SDS011;72317;37.280;-121.948;2024-01-11T06:53:11;4.97;;;0.55;;
82635;SDS011;72317;37.280;-121.948;2024-01-11T06:55:37;4.47;;;0.80;;
82635;SDS011;72317;37.280;-121.948;2024-01-11T06:58:06;8.52;;;1.15;;
82635;SDS011;72317;37.280;-121.948;2024-01-11T07:00:32;4.03;;;0.93;;
82635;SDS011;72317;37.280;-121.948;2024-01-11T07:02:58;5.40;;;0.57;;
82635;SDS011;72317;37.280;-121.948;2024-01-11T07:05:24;2.28;;;0.60;;
82635;SDS011;72317;37.280;-121.948;2024-01-11T07:07:50;1.50;;;0.30;;
82635;SDS011;72317;37.280;-121.948;2024-01-11T07:10:16;1.58;;;0.40;;
82635;SDS011;72317;37.280;-121.948;2024-01-11T07:12:42;2.28;;;0.40;;
82635;SDS011;72317;37.280;-121.948;2024-01-11T07:15:11;2.30;;;0.40;;
82635;SDS011;72317;37.280;-121.948;2024-01-11T07:17:37;3.97;;;0.52;;
82635;SDS011;72317;37.280;-121.948;2024-01-11T07:20:04;3.05;;;0.50;;
82635;SDS011;72317;37.280;-121.948;2024-01-11T07:22:30;2.53;;;0.40;;
82635;SDS011;72317;37.280;-121.948;2024-01-11T07:25:14;2.30;;;0.40;;
82635;SDS011;72317;37.280;-121.948;2024-01-11T07:27:40;3.08;;;0.30;;
82635;SDS011;72317;37.280;-121.948;2024-01-11T07:30:06;1.63;;;0.60;;
82635;SDS011;72317;37.280;-121.948;2024-01-11T07:32:33;2.92;;;0.60;;
82635;SDS011;72317;37.280;-121.948;2024-01-11T07:35:00;2.75;;;0.40;;
82635;SDS011;72317;37.280;-121.948;2024-01-11T07:37:26;2.28;;;0.45;;
82635;SDS011;72317;37.280;-121.948;2024-01-11T07:39:53;4.47;;;0.50;;
82635;SDS011;72317;37.280;-121.948;2024-01-11T07:42:19;1.33;;;0.32;;
82635;SDS011;72317;37.280;-121.948;2024-01-11T07:44:45;3.67;;;0.30;;
82635;SDS011;72317;37.280;-121.948;2024-01-11T07:47:11;1.40;;;0.45;;
82635;SDS011;72317;37.280;-121.948;2024-01-11T07:49:37;1.55;;;0.30;;
82635;SDS011;72317;37.280;-121.948;2024-01-11T07:52:04;1.48;;;0.30;;
82635;SDS011;72317;37.280;-121.948;2024-01-11T07:54:30;1.85;;;0.40;;
82635;SDS011;72317;37.280;-121.948;2024-01-11T07:56:57;1.15;;;0.30;;
82635;SDS011;72317;37.280;-121.948;2024-01-11T07:59:23;2.47;;;0.30;;
82635;SDS011;72317;37.280;-121.948;2024-01-11T08:01:49;1.25;;;0.45;;
82635;SDS011;72317;37.280;-121.948;2024-01-11T08:04:17;1.25;;;0.40;;
82635;SDS011;72317;37.280;-121.948;2024-01-11T08:06:44;1.90;;;0.40;;
82635;SDS011;72317;37.280;-121.948;2024-01-11T08:09:10;1.08;;;0.35;;
82635;SDS011;72317;37.280;-121.948;2024-01-11T08:11:38;3.38;;;0.65;;
82635;SDS011;72317;37.280;-121.948;2024-01-11T08:14:06;2.08;;;0.30;;
82635;SDS011;72317;37.280;-121.948;2024-01-11T08:16:33;1.25;;;0.40;;
82635;SDS011;72317;37.280;-121.948;2024-01-11T08:18:59;2.22;;;0.50;;
82635;SDS011;72317;37.280;-121.948;2024-01-11T08:21:26;3.45;;;0.30;;
82635;SDS011;72317;37.280;-121.948;2024-01-11T08:23:53;2.22;;;0.25;;
82635;SDS011;72317;37.280;-121.948;2024-01-11T08:26:20;2.00;;;0.40;;
82635;SDS011;72317;37.280;-121.948;2024-01-11T08:28:47;0.68;;;0.30;;
82635;SDS011;72317;37.280;-121.948;2024-01-11T08:31:13;1.00;;;0.30;;
82635;SDS011;72317;37.280;-121.948;2024-01-11T08:33:40;1.45;;;0.30;;
82635;SDS011;72317;37.280;-121.948;2024-01-11T08:36:06;0.47;;;0.28;;
82635;SDS011;72317;37.280;-121.948;2024-01-11T08:38:32;0.60;;;0.30;;
82635;SDS011;72317;37.280;-121.948;2024-01-11T08:40:58;2.25;;;0.32;;
82635;SDS011;72317;37.280;-121.948;2024-01-11T08:43:27;3.03;;;0.28;;
82635;SDS011;72317;37.280;-121.948;2024-01-11T08:45:53;2.17;;;0.32;;
82635;SDS011;72317;37.280;-121.948;2024-01-11T08:48:20;1.33;;;0.20;;
82635;SDS011;72317;37.280;-121.948;2024-01-11T08:50:46;1.55;;;0.32;;
82635;SDS011;72317;37.280;-121.948;2024-01-11T08:53:13;3.08;;;0.50;;
82635;SDS011;72317;37.280;-121.948;2024-01-11T08:55:39;2.03;;;0.45;;
82635;SDS011;72317;37.280;-121.948;2024-01-11T08:58:05;4.47;;;0.60;;
82635;SDS011;72317;37.280;-121.948;2024-01-11T09:00:31;2.38;;;0.30;;
82635;SDS011;72317;37.280;-121.948;2024-01-11T09:02:57;0.30;;;0.25;;
82635;SDS011;72317;37.280;-121.948;2024-01-11T09:05:24;1.40;;;0.20;;
82635;SDS011;72317;37.280;-121.948;2024-01-11T09:07:51;1.90;;;0.22;;
82635;SDS011;72317;37.280;-121.948;2024-01-11T09:10:17;1.95;;;0.47;;
82635;SDS011;72317;37.280;-121.948;2024-01-11T09:12:43;5.10;;;0.50;;
82635;SDS011;72317;37.280;-121.948;2024-01-11T09:15:09;2.20;;;0.50;;
82635;SDS011;72317;37.280;-121.948;2024-01-11T09:17:35;3.53;;;0.40;;
82635;SDS011;72317;37.280;-121.948;2024-01-11T09:20:03;1.33;;;0.45;;
82635;SDS011;72317;37.280;-121.948;2024-01-11T09:22:29;3.65;;;0.43;;
82635;SDS011;72317;37.280;-121.948;2024-01-11T09:24:55;3.60;;;0.40;;
82635;SDS011;72317;37.280;-121.948;2024-01-11T09:27:21;0.95;;;0.32;;
82635;SDS011;72317;37.280;-121.948;2024-01-11T09:29:48;1.23;;;0.25;;
82635;SDS011;72317;37.280;-121.948;2024-01-11T09:32:14;1.45;;;0.30;;
82635;SDS011;72317;37.280;-121.948;2024-01-11T09:34:40;4.43;;;0.60;;
82635;SDS011;72317;37.280;-121.948;2024-01-11T09:37:06;2.70;;;0.30;;
82635;SDS011;72317;37.280;-121.948;2024-01-11T09:39:32;1.23;;;0.20;;
82635;SDS011;72317;37.280;-121.948;2024-01-11T09:42:04;0.20;;;0.13;;
82635;SDS011;72317;37.280;-121.948;2024-01-11T09:44:32;2.58;;;0.38;;
82635;SDS011;72317;37.280;-121.948;2024-01-11T09:46:59;0.45;;;0.20;;
82635;SDS011;72317;37.280;-121.948;2024-01-11T09:49:28;2.60;;;0.40;;
82635;SDS011;72317;37.280;-121.948;2024-01-11T09:51:56;4.20;;;0.40;;
82635;SDS011;72317;37.280;-121.948;2024-01-11T09:54:23;1.67;;;0.25;;
82635;SDS011;72317;37.280;-121.948;2024-01-11T09:56:50;1.65;;;0.30;;
82635;SDS011;72317;37.280;-121.948;2024-01-11T09:59:38;2.50;;;0.28;;
82635;SDS011;72317;37.280;-121.948;2024-01-11T10:02:07;3.30;;;0.45;;
82635;SDS011;72317;37.280;-121.948;2024-01-11T10:04:36;2.05;;;0.30;;
82635;SDS011;72317;37.280;-121.948;2024-01-11T10:07:03;2.25;;;0.30;;
82635;SDS011;72317;37.280;-121.948;2024-01-11T10:09:31;1.75;;;0.20;;
82635;SDS011;72317;37.280;-121.948;2024-01-11T10:11:58;3.17;;;0.30;;
82635;SDS011;72317;37.280;-121.948;2024-01-11T10:14:24;2.55;;;0.55;;
82635;SDS011;72317;37.280;-121.948;2024-01-11T10:16:51;2.42;;;0.45;;
82635;SDS011;72317;37.280;-121.948;2024-01-11T10:19:19;0.50;;;0.35;;
82635;SDS011;72317;37.280;-121.948;2024-01-11T10:21:46;2.05;;;0.45;;
82635;SDS011;72317;37.280;-121.948;2024-01-11T10:24:19;1.63;;;0.52;;
82635;SDS011;72317;37.280;-121.948;2024-01-11T10:26:47;1.48;;;0.40;;
82635;SDS011;72317;37.280;-121.948;2024-01-11T10:29:13;3.50;;;0.57;;
82635;SDS011;72317;37.280;-121.948;2024-01-11T10:31:39;3.55;;;0.70;;
82635;SDS011;72317;37.280;-121.948;2024-01-11T10:34:06;2.05;;;0.40;;
82635;SDS011;72317;37.280;-121.948;2024-01-11T10:36:32;1.05;;;0.30;;
82635;SDS011;72317;37.280;-121.948;2024-01-11T10:39:02;4.00;;;0.47;;
82635;SDS011;72317;37.280;-121.948;2024-01-11T10:41:39;2.17;;;0.40;;
82635;SDS011;72317;37.280;-121.948;2024-01-11T10:44:24;2.83;;;0.35;;
82635;SDS011;72317;37.280;-121.948;2024-01-11T10:46:54;2.38;;;0.50;;
82635;SDS011;72317;37.280;-121.948;2024-01-11T10:49:22;1.95;;;0.40;;
82635;SDS011;72317;37.280;-121.948;2024-01-11T10:52:08;1.15;;;0.40;;
82635;SDS011;72317;37.280;-121.948;2024-01-11T10:54:38;2.92;;;0.45;;
82635;SDS011;72317;37.280;-121.948;2024-01-11T10:57:07;8.02;;;0.47;;
82635;SDS011;72317;37.280;-121.948;2024-01-11T10:59:35;2.97;;;0.52;;
82635;SDS011;72317;37.280;-121.948;2024-01-11T11:02:06;3.13;;;0.40;;
82635;SDS011;72317;37.280;-121.948;2024-01-11T11:04:38;2.88;;;0.35;;
82635;SDS011;72317;37.280;-121.948;2024-01-11T11:07:04;1.27;;;0.40;;
82635;SDS011;72317;37.280;-121.948;2024-01-11T11:09:34;3.10;;;0.50;;
82635;SDS011;72317;37.280;-121.948;2024-01-11T11:12:01;7.40;;;0.68;;
82635;SDS011;72317;37.280;-121.948;2024-01-11T11:14:29;2.50;;;0.40;;
82635;SDS011;72317;37.280;-121.948;2024-01-11T11:16:57;1.65;;;0.40;;
82635;SDS011;72317;37.280;-121.948;2024-01-11T11:19:24;3.50;;;0.17;;
82635;SDS011;72317;37.280;-121.948;2024-01-11T11:21:50;2.47;;;0.40;;
82635;SDS011;72317;37.280;-121.948;2024-01-11T11:24:17;0.82;;;0.30;;
82635;SDS011;72317;37.280;-121.948;2024-01-11T11:26:44;3.45;;;0.60;;
82635;SDS011;72317;37.280;-121.948;2024-01-11T11:29:10;3.88;;;0.60;;
82635;SDS011;72317;37.280;-121.948;2024-01-11T11:31:36;0.50;;;0.38;;
82635;SDS011;72317;37.280;-121.948;2024-01-11T11:34:04;2.95;;;0.50;;
82635;SDS011;72317;37.280;-121.948;2024-01-11T11:36:32;2.35;;;0.80;;
82635;SDS011;72317;37.280;-121.948;2024-01-11T11:39:00;1.85;;;0.40;;
82635;SDS011;72317;37.280;-121.948;2024-01-11T11:41:29;3.95;;;0.65;;
82635;SDS011;72317;37.280;-121.948;2024-01-11T11:44:03;4.93;;;0.65;;
82635;SDS011;72317;37.280;-121.948;2024-01-11T11:46:31;4.93;;;0.43;;
82635;SDS011;72317;37.280;-121.948;2024-01-11T11:48:58;3.42;;;0.45;;
82635;SDS011;72317;37.280;-121.948;2024-01-11T11:51:25;0.73;;;0.30;;
82635;SDS011;72317;37.280;-121.948;2024-01-11T11:53:51;3.80;;;0.70;;
82635;SDS011;72317;37.280;-121.948;2024-01-11T11:56:19;2.13;;;0.70;;
82635;SDS011;72317;37.280;-121.948;2024-01-11T11:58:46;4.38;;;0.57;;
82635;SDS011;72317;37.280;-121.948;2024-01-11T12:01:14;0.95;;;0.40;;
82635;SDS011;72317;37.280;-121.948;2024-01-11T12:03:43;2.92;;;0.45;;
82635;SDS011;72317;37.280;-121.948;2024-01-11T12:06:16;3.63;;;0.57;;
82635;SDS011;72317;37.280;-121.948;2024-01-11T12:08:44;3.85;;;0.70;;
82635;SDS011;72317;37.280;-121.948;2024-01-11T12:11:18;1.85;;;0.40;;
82635;SDS011;72317;37.280;-121.948;2024-01-11T12:13:48;0.60;;;0.40;;
82635;SDS011;72317;37.280;-121.948;2024-01-11T12:16:15;2.58;;;0.60;;
82635;SDS011;72317;37.280;-121.948;2024-01-11T12:18:41;2.00;;;0.30;;
82635;SDS011;72317;37.280;-121.948;2024-01-11T12:21:08;0.50;;;0.28;;
82635;SDS011;72317;37.280;-121.948;2024-01-11T12:23:34;0.88;;;0.50;;
82635;SDS011;72317;37.280;-121.948;2024-01-11T12:26:02;3.72;;;0.30;;
82635;SDS011;72317;37.280;-121.948;2024-01-11T12:28:31;1.75;;;0.57;;
82635;SDS011;72317;37.280;-121.948;2024-01-11T12:30:58;1.50;;;0.40;;
82635;SDS011;72317;37.280;-121.948;2024-01-11T12:33:24;3.30;;;0.50;;
82635;SDS011;72317;37.280;-121.948;2024-01-11T12:35:51;2.17;;;0.60;;
82635;SDS011;72317;37.280;-121.948;2024-01-11T12:38:18;2.25;;;0.52;;
82635;SDS011;72317;37.280;-121.948;2024-01-11T12:41:04;2.03;;;0.40;;
82635;SDS011;72317;37.280;-121.948;2024-01-11T12:43:32;4.38;;;0.82;;
82635;SDS011;72317;37.280;-121.948;2024-01-11T12:45:59;3.30;;;0.40;;
82635;SDS011;72317;37.280;-121.948;2024-01-11T12:48:25;3.22;;;0.50;;
82635;SDS011;72317;37.280;-121.948;2024-01-11T12:50:51;3.50;;;0.45;;
82635;SDS011;72317;37.280;-121.948;2024-01-11T12:53:19;4.18;;;0.50;;
82635;SDS011;72317;37.280;-121.948;2024-01-11T12:55:46;3.17;;;0.50;;
82635;SDS011;72317;37.280;-121.948;2024-01-11T12:58:38;4.07;;;0.52;;
82635;SDS011;72317;37.280;-121.948;2024-01-11T13:01:08;2.17;;;0.63;;
82635;SDS011;72317;37.280;-121.948;2024-01-11T13:03:35;2.47;;;0.57;;
82635;SDS011;72317;37.280;-121.948;2024-01-11T13:06:03;2.10;;;0.60;;
82635;SDS011;72317;37.280;-121.948;2024-01-11T13:08:34;1.95;;;0.60;;
82635;SDS011;72317;37.280;-121.948;2024-01-11T13:11:07;2.65;;;0.55;;
82635;SDS011;72317;37.280;-121.948;2024-01-11T13:13:34;4.28;;;0.98;;
82635;SDS011;72317;37.280;-121.948;2024-01-11T13:16:03;1.05;;;0.40;;
82635;SDS011;72317;37.280;-121.948;2024-01-11T13:18:36;0.90;;;0.38;;
82635;SDS011;72317;37.280;-121.948;2024-01-11T13:21:02;1.77;;;0.50;;
82635;SDS011;72317;37.280;-121.948;2024-01-11T13:23:29;1.50;;;0.40;;
82635;SDS011;72317;37.280;-121.948;2024-01-11T13:25:56;1.85;;;0.57;;
82635;SDS011;72317;37.280;-121.948;2024-01-11T13:28:22;1.10;;;0.47;;
82635;SDS011;72317;37.280;-121.948;2024-01-11T13:30:48;2.13;;;0.55;;
82635;SDS011;72317;37.280;-121.948;2024-01-11T13:33:15;1.73;;;0.57;;
82635;SDS011;72317;37.280;-121.948;2024-01-11T13:35:42;2.50;;;0.40;;
82635;SDS011;72317;37.280;-121.948;2024-01-11T13:38:09;4.93;;;0.70;;
82635;SDS011;72317;37.280;-121.948;2024-01-11T13:40:35;4.85;;;0.68;;
82635;SDS011;72317;37.280;-121.948;2024-01-11T13:43:01;1.85;;;0.40;;
82635;SDS011;72317;37.280;-121.948;2024-01-11T13:45:28;1.35;;;0.50;;
82635;SDS011;72317;37.280;-121.948;2024-01-11T13:47:57;1.13;;;0.43;;
82635;SDS011;72317;37.280;-121.948;2024-01-11T13:50:24;1.52;;;0.80;;
82635;SDS011;72317;37.280;-121.948;2024-01-11T13:52:51;5.70;;;1.00;;
82635;SDS011;72317;37.280;-121.948;2024-01-11T13:55:17;4.93;;;0.60;;
82635;SDS011;72317;37.280;-121.948;2024-01-11T13:57:46;1.92;;;0.55;;
82635;SDS011;72317;37.280;-121.948;2024-01-11T14:00:13;1.42;;;0.35;;
82635;SDS011;72317;37.280;-121.948;2024-01-11T14:02:40;1.58;;;0.30;;
82635;SDS011;72317;37.280;-121.948;2024-01-11T14:05:07;1.02;;;0.30;;
82635;SDS011;72317;37.280;-121.948;2024-01-11T14:07:37;1.42;;;0.50;;
82635;SDS011;72317;37.280;-121.948;2024-01-11T14:10:04;1.63;;;0.47;;
82635;SDS011;72317;37.280;-121.948;2024-01-11T14:12:31;3.65;;;0.73;;
82635;SDS011;72317;37.280;-121.948;2024-01-11T14:14:58;4.45;;;0.57;;
82635;SDS011;72317;37.280;-121.948;2024-01-11T14:17:25;1.73;;;0.60;;
82635;SDS011;72317;37.280;-121.948;2024-01-11T14:19:52;3.90;;;0.70;;
82635;SDS011;72317;37.280;-121.948;2024-01-11T14:22:18;3.42;;;0.60;;
82635;SDS011;72317;37.280;-121.948;2024-01-11T14:24:44;3.08;;;0.57;;
82635;SDS011;72317;37.280;-121.948;2024-01-11T14:27:10;0.50;;;0.45;;
82635;SDS011;72317;37.280;-121.948;2024-01-11T14:29:36;2.17;;;0.55;;
82635;SDS011;72317;37.280;-121.948;2024-01-11T14:32:04;4.55;;;0.47;;
82635;SDS011;72317;37.280;-121.948;2024-01-11T14:34:31;5.20;;;1.05;;